Time;durP1;ratioP1;P1;durP2;ratioP2;P2;SDS_P1;SDS_P2;PMS_P1;PMS_P2;Temp;Humidity;BMP_temperature;BMP_pressure;BME280_temperature;BME280_humidity;BME280_pressure;Samples;Min_cycle;Max_cycle;Signal;HPM_P1;HPM_P2
2021/08/10 00:01:17;;;;;;;20.17;6.00;;;12.50;99.90;;;;;;5087124;28;20118;-85
2021/08/10 00:03:43;;;;;;;18.17;6.25;;;12.60;99.90;;;;;;5072991;28;20048;-85
2021/08/10 00:06:09;;;;;;;13.18;6.35;;;12.60;99.90;;;;;;5072154;28;20294;-85
2021/08/10 00:08:35;;;;;;;14.40;5.70;;;12.40;99.90;;;;;;5090853;28;20044;-85
2021/08/10 00:11:01;;;;;;;9.77;6.15;;;12.70;99.90;;;;;;5072388;28;20044;-84
2021/08/10 00:13:27;;;;;;;16.13;5.72;;;12.40;99.90;;;;;;5072473;28;20067;-85
2021/08/10 00:15:53;;;;;;;13.05;5.85;;;12.40;99.90;;;;;;5089398;28;20068;-85
2021/08/10 00:18:19;;;;;;;22.42;6.10;;;12.50;99.90;;;;;;5072157;28;20075;-85
2021/08/10 00:20:45;;;;;;;14.90;6.63;;;12.70;99.90;;;;;;5091086;28;20126;-85
2021/08/10 00:23:11;;;;;;;11.40;5.65;;;12.70;99.90;;;;;;5071929;28;20139;-86
2021/08/10 00:25:37;;;;;;;10.77;6.15;;;12.60;99.90;;;;;;5072652;28;20097;-85
2021/08/10 00:28:03;;;;;;;17.55;7.35;;;12.50;99.90;;;;;;5055089;28;20043;-85
2021/08/10 00:30:30;;;;;;;20.48;6.55;;;12.70;99.90;;;;;;5072207;28;20051;-87
2021/08/10 00:32:55;;;;;;;14.43;7.30;;;12.50;99.90;;;;;;5038817;28;20499;-86
2021/08/10 00:35:21;;;;;;;14.88;7.50;;;12.60;99.90;;;;;;5071028;28;20051;-85
2021/08/10 00:37:47;;;;;;;13.40;7.43;;;12.70;99.90;;;;;;5090395;28;20479;-86
2021/08/10 00:40:17;;;;;;;21.92;7.38;;;12.70;99.90;;;;;;5071590;28;20040;-87
2021/08/10 00:42:43;;;;;;;15.77;6.43;;;12.50;99.90;;;;;;5071950;28;20052;-86
2021/08/10 00:45:09;;;;;;;17.95;7.68;;;12.60;99.90;;;;;;5070855;28;20052;-85
2021/08/10 00:47:35;;;;;;;15.80;7.03;;;12.60;99.90;;;;;;5072493;28;20406;-86
2021/08/10 00:50:01;;;;;;;17.77;6.47;;;12.70;99.90;;;;;;5054897;28;20040;-85
2021/08/10 00:52:28;;;;;;;14.32;7.95;;;12.50;99.90;;;;;;5057612;28;20074;-86
2021/08/10 00:54:54;;;;;;;16.08;6.72;;;12.50;99.90;;;;;;5071205;28;20044;-86
2021/08/10 00:57:20;;;;;;;20.35;7.45;;;12.60;99.90;;;;;;5089831;28;20040;-87
2021/08/10 00:59:46;;;;;;;16.73;9.07;;;12.50;99.90;;;;;;5055886;28;20044;-86
2021/08/10 01:02:12;;;;;;;22.52;8.32;;;12.50;99.90;;;;;;5052686;28;20830;-86
2021/08/10 01:04:38;;;;;;;21.80;8.05;;;12.50;99.90;;;;;;5090027;28;20488;-86
2021/08/10 01:07:22;;;;;;;17.55;8.45;;;12.60;99.90;;;;;;5051285;28;20480;-87
2021/08/10 01:09:57;;;;;;;11.18;6.25;;;12.50;99.90;;;;;;5072129;28;20036;-86
2021/08/10 01:12:28;;;;;;;15.13;7.18;;;12.60;99.90;;;;;;5068747;28;20064;-87
2021/08/10 01:14:54;;;;;;;21.77;7.75;;;12.60;99.90;;;;;;5089596;28;20575;-87
2021/08/10 01:17:27;;;;;;;17.58;8.20;;;12.60;99.90;;;;;;5088810;28;20122;-86
2021/08/10 01:20:05;;;;;;;22.48;7.82;;;12.50;99.90;;;;;;5083564;28;20032;-86
2021/08/10 01:22:33;;;;;;;17.27;7.50;;;12.60;99.90;;;;;;5088858;28;20043;-86
2021/08/10 01:25:21;;;;;;;15.50;7.82;;;12.50;99.90;;;;;;5083652;28;20044;-87
2021/08/10 01:27:54;;;;;;;14.02;7.43;;;12.60;99.90;;;;;;5069139;28;20119;-87
2021/08/10 01:30:41;;;;;;;18.45;8.15;;;12.50;99.90;;;;;;5085298;28;20036;-87
2021/08/10 01:33:08;;;;;;;29.63;9.18;;;12.50;99.90;;;;;;5089062;28;20055;-87
2021/08/10 01:35:36;;;;;;;14.60;7.85;;;12.60;99.90;;;;;;5088466;28;20044;-87
2021/08/10 01:38:05;;;;;;;19.30;8.13;;;12.40;99.90;;;;;;5070394;28;20044;-87
2021/08/10 01:40:32;;;;;;;10.98;7.43;;;12.60;99.90;;;;;;5071515;28;20039;-87
2021/08/10 01:43:03;;;;;;;26.15;7.88;;;12.40;99.90;;;;;;5088762;28;20036;-88
2021/08/10 01:45:36;;;;;;;18.58;7.57;;;12.60;99.90;;;;;;5071396;28;20601;-87
2021/08/10 01:48:04;;;;;;;14.90;9.43;;;12.50;99.90;;;;;;5088501;28;20050;-87
2021/08/10 01:50:29;;;;;;;16.48;7.97;;;12.50;99.90;;;;;;5070763;28;20391;-86
2021/08/10 01:52:56;;;;;;;16.88;7.30;;;12.60;99.90;;;;;;5054775;28;20032;-86
2021/08/10 01:55:22;;;;;;;21.70;8.98;;;12.60;99.90;;;;;;5088184;28;20040;-85
2021/08/10 01:57:49;;;;;;;28.95;8.27;;;12.50;99.90;;;;;;5071435;28;20075;-85
2021/08/10 02:00:15;;;;;;;30.35;8.30;;;12.50;99.90;;;;;;5070107;28;20040;-85
2021/08/10 02:02:45;;;;;;;20.50;8.60;;;12.50;99.90;;;;;;5070653;28;20098;-85
2021/08/10 02:05:12;;;;;;;22.38;7.95;;;12.60;99.90;;;;;;5069997;28;20139;-85
2021/08/10 02:07:38;;;;;;;16.20;7.78;;;12.60;99.90;;;;;;5089097;28;20081;-85
2021/08/10 02:10:05;;;;;;;26.08;9.55;;;12.60;99.90;;;;;;5070163;28;20044;-86
2021/08/10 02:12:31;;;;;;;29.17;9.38;;;12.60;99.90;;;;;;5055180;28;20398;-85
2021/08/10 02:14:58;;;;;;;25.98;10.32;;;12.60;99.90;;;;;;5088957;28;20082;-85
2021/08/10 02:17:24;;;;;;;25.77;10.35;;;12.50;99.90;;;;;;5087574;28;20762;-85
2021/08/10 02:19:50;;;;;;;23.73;9.90;;;12.70;99.90;;;;;;5070881;28;20048;-85
2021/08/10 02:22:17;;;;;;;24.13;9.82;;;12.80;99.90;;;;;;5088034;28;20055;-85
2021/08/10 02:25:08;;;;;;;27.25;8.40;;;12.60;99.90;;;;;;5091554;28;20063;-85
2021/08/10 02:27:47;;;;;;;26.55;10.38;;;12.70;99.90;;;;;;5089791;28;20040;-85
2021/08/10 02:30:16;;;;;;;29.95;9.00;;;12.80;99.90;;;;;;5057853;28;20400;-85
2021/08/10 02:32:44;;;;;;;15.00;8.40;;;12.70;99.90;;;;;;5092343;28;20530;-85
2021/08/10 02:35:15;;;;;;;23.92;8.73;;;12.70;99.90;;;;;;5091989;28;20040;-86
2021/08/10 02:37:43;;;;;;;23.40;8.73;;;12.80;99.90;;;;;;5092041;28;20044;-85
2021/08/10 02:40:11;;;;;;;23.10;8.60;;;12.70;99.90;;;;;;5073482;28;20078;-86
2021/08/10 02:42:39;;;;;;;20.25;9.00;;;12.80;99.90;;;;;;5073704;28;20399;-85
2021/08/10 02:45:06;;;;;;;28.50;10.10;;;12.80;99.90;;;;;;5073525;28;20468;-86
2021/08/10 02:47:32;;;;;;;29.02;9.82;;;12.90;99.90;;;;;;5092044;28;20082;-85
2021/08/10 02:49:58;;;;;;;22.85;9.85;;;12.90;99.90;;;;;;5057598;28;20130;-84
2021/08/10 02:52:23;;;;;;;26.83;8.90;;;12.90;99.90;;;;;;5073513;28;20044;-85
2021/08/10 02:54:50;;;;;;;25.02;8.02;;;13.10;99.90;;;;;;5057803;28;20048;-85
2021/08/10 02:57:26;;;;;;;18.15;7.97;;;13.00;99.90;;;;;;5083181;28;20075;-85
2021/08/10 03:00:05;;;;;;;22.88;7.95;;;13.10;99.90;;;;;;5074039;28;20124;-85
2021/08/10 03:02:37;;;;;;;22.05;8.50;;;13.10;99.90;;;;;;5090537;28;20036;-84
2021/08/10 03:05:14;;;;;;;19.80;8.70;;;12.90;99.90;;;;;;5092320;28;20044;-84
2021/08/10 03:08:00;;;;;;;23.45;9.32;;;12.90;99.90;;;;;;5091855;28;20055;-84
2021/08/10 03:10:29;;;;;;;19.67;7.97;;;12.90;99.90;;;;;;5091539;28;20204;-84
2021/08/10 03:12:56;;;;;;;34.38;12.15;;;13.10;99.90;;;;;;5091105;28;20055;-85
2021/08/10 03:15:26;;;;;;;21.35;8.70;;;13.10;99.90;;;;;;5073193;28;20036;-84
2021/08/10 03:17:55;;;;;;;19.02;9.20;;;13.00;99.90;;;;;;5091494;28;20059;-84
2021/08/10 03:20:22;;;;;;;24.25;9.48;;;13.00;99.90;;;;;;5090804;28;20063;-84
2021/08/10 03:22:49;;;;;;;26.02;10.73;;;13.10;99.90;;;;;;5073679;28;20094;-85
2021/08/10 03:25:18;;;;;;;29.65;9.85;;;13.00;99.90;;;;;;5073065;28;20127;-85
2021/08/10 03:27:45;;;;;;;25.10;8.98;;;13.20;99.90;;;;;;5073232;28;20048;-85
2021/08/10 03:30:12;;;;;;;20.42;9.13;;;13.00;99.90;;;;;;5072923;28;20044;-85
2021/08/10 03:32:40;;;;;;;15.98;8.68;;;13.10;99.90;;;;;;5091532;28;20044;-85
2021/08/10 03:35:07;;;;;;;33.72;9.18;;;13.00;99.90;;;;;;5042715;28;20470;-86
2021/08/10 03:37:34;;;;;;;18.75;9.07;;;13.10;99.90;;;;;;5089945;28;20122;-86
2021/08/10 03:40:02;;;;;;;20.15;9.13;;;13.10;99.90;;;;;;5073197;28;20456;-86
2021/08/10 03:42:29;;;;;;;27.63;10.20;;;13.10;99.90;;;;;;5090319;28;20114;-86
2021/08/10 03:44:56;;;;;;;32.70;10.70;;;13.10;99.90;;;;;;5073724;28;20039;-86
2021/08/10 03:47:22;;;;;;;18.92;9.30;;;13.10;99.90;;;;;;5072701;28;20071;-85
2021/08/10 03:49:49;;;;;;;21.83;10.70;;;13.20;99.90;;;;;;5091048;28;20147;-86
2021/08/10 03:52:16;;;;;;;29.88;14.00;;;13.10;99.90;;;;;;5072271;28;20046;-86
2021/08/10 03:54:42;;;;;;;30.60;13.85;;;13.00;99.90;;;;;;5073209;28;20122;-86
2021/08/10 03:57:17;;;;;;;22.50;11.88;;;13.20;99.90;;;;;;5072663;28;20063;-86
2021/08/10 03:59:51;;;;;;;30.42;13.00;;;13.10;99.90;;;;;;5056563;28;20048;-86
2021/08/10 04:02:17;;;;;;;22.42;11.35;;;13.20;99.90;;;;;;5055669;28;20058;-87
2021/08/10 04:04:44;;;;;;;32.17;13.60;;;13.20;99.90;;;;;;5091661;28;20120;-86
2021/08/10 04:07:11;;;;;;;28.75;11.85;;;13.30;99.90;;;;;;5072489;28;20032;-86
2021/08/10 04:09:38;;;;;;;28.10;12.55;;;13.30;99.90;;;;;;5072538;28;20047;-86
2021/08/10 04:12:06;;;;;;;31.45;13.45;;;13.20;99.90;;;;;;5055478;28;20044;-85
2021/08/10 04:14:33;;;;;;;23.42;12.32;;;13.30;99.90;;;;;;5071690;28;20130;-85
2021/08/10 04:17:02;;;;;;;25.20;13.35;;;13.40;99.90;;;;;;5090593;28;20055;-85
2021/08/10 04:19:30;;;;;;;26.75;11.15;;;13.40;99.90;;;;;;5090298;28;20036;-84
2021/08/10 04:21:56;;;;;;;20.17;9.25;;;13.20;99.90;;;;;;5072874;28;20062;-84
2021/08/10 04:24:22;;;;;;;21.05;7.25;;;13.30;99.90;;;;;;5071881;28;20043;-86
2021/08/10 04:26:47;;;;;;;18.48;6.43;;;13.20;99.90;;;;;;5090568;28;20119;-85
2021/08/10 04:29:14;;;;;;;24.58;7.30;;;13.30;99.90;;;;;;5039451;28;20051;-85
2021/08/10 04:31:41;;;;;;;18.20;6.95;;;13.50;99.90;;;;;;5090068;28;20056;-85
2021/08/10 04:34:07;;;;;;;16.60;6.80;;;13.50;99.90;;;;;;5090550;28;20544;-84
2021/08/10 04:36:32;;;;;;;14.23;6.47;;;13.50;99.90;;;;;;5071571;28;20035;-84
2021/08/10 04:38:59;;;;;;;14.98;6.70;;;13.60;99.90;;;;;;5055552;28;20071;-84
2021/08/10 04:41:25;;;;;;;23.42;6.13;;;13.60;99.90;;;;;;5089662;28;20055;-84
2021/08/10 04:43:52;;;;;;;17.90;6.60;;;13.60;99.90;;;;;;5072241;28;20040;-85
2021/08/10 04:46:22;;;;;;;14.20;6.43;;;13.40;99.90;;;;;;5071568;28;20046;-84
2021/08/10 04:48:47;;;;;;;16.05;7.35;;;13.60;99.90;;;;;;5090352;28;20124;-85
2021/08/10 04:51:13;;;;;;;16.67;6.68;;;13.50;99.90;;;;;;5089541;28;20111;-85
2021/08/10 04:53:40;;;;;;;17.42;7.35;;;13.70;99.90;;;;;;5088697;28;20062;-85
2021/08/10 04:56:06;;;;;;;19.98;7.57;;;13.60;99.90;;;;;;5089494;28;20496;-84
2021/08/10 04:58:32;;;;;;;23.77;7.75;;;13.60;99.90;;;;;;5070583;28;20058;-85
2021/08/10 05:00:58;;;;;;;16.77;7.05;;;13.70;99.90;;;;;;5089632;28;20078;-84
2021/08/10 05:03:24;;;;;;;20.08;7.85;;;13.70;99.90;;;;;;5088270;28;20044;-85
2021/08/10 05:05:50;;;;;;;17.60;7.43;;;13.60;99.90;;;;;;5089357;28;20097;-84
2021/08/10 05:08:16;;;;;;;11.63;6.57;;;13.80;99.90;;;;;;5070857;28;20131;-86
2021/08/10 05:10:42;;;;;;;16.13;8.05;;;13.70;99.90;;;;;;5070694;28;20070;-85
2021/08/10 05:13:09;;;;;;;26.02;8.68;;;13.70;99.90;;;;;;5089220;28;20043;-85
2021/08/10 05:15:38;;;;;;;21.92;8.45;;;13.80;99.90;;;;;;5088848;28;20054;-85
2021/08/10 05:18:04;;;;;;;23.90;8.85;;;13.80;99.90;;;;;;5088908;28;20039;-85
2021/08/10 05:20:30;;;;;;;18.80;9.82;;;13.80;99.90;;;;;;5070636;28;20483;-84
2021/08/10 05:22:56;;;;;;;17.83;9.40;;;13.80;99.90;;;;;;5089146;28;20093;-85
2021/08/10 05:25:22;;;;;;;17.35;9.50;;;13.80;99.90;;;;;;5087825;28;20036;-86
2021/08/10 05:27:48;;;;;;;21.80;10.27;;;14.00;99.90;;;;;;5088995;28;20506;-85
2021/08/10 05:30:14;;;;;;;24.42;10.70;;;13.90;99.90;;;;;;5088948;28;20040;-85
2021/08/10 05:32:40;;;;;;;19.83;9.45;;;14.10;99.90;;;;;;5088269;28;20036;-85
2021/08/10 05:35:07;;;;;;;26.25;9.65;;;14.30;99.90;;;;;;5071140;28;20040;-85
2021/08/10 05:37:34;;;;;;;18.48;8.30;;;14.20;99.90;;;;;;5070415;28;20048;-86
2021/08/10 05:39:59;;;;;;;19.63;7.40;;;14.40;99.90;;;;;;5088855;28;20532;-85
2021/08/10 05:42:25;;;;;;;13.88;6.40;;;14.50;99.90;;;;;;5070307;28;20044;-84
2021/08/10 05:44:51;;;;;;;16.63;7.63;;;14.50;99.90;;;;;;5088867;28;20040;-84
2021/08/10 05:47:17;;;;;;;16.10;7.07;;;14.60;99.90;;;;;;5088967;28;20068;-85
2021/08/10 05:49:43;;;;;;;16.50;6.40;;;14.60;99.90;;;;;;5069957;28;20617;-85
2021/08/10 05:52:09;;;;;;;18.50;6.47;;;14.60;99.90;;;;;;5089109;28;20046;-85
2021/08/10 05:54:35;;;;;;;17.58;6.85;;;14.50;99.90;;;;;;5069879;28;20056;-85
2021/08/10 05:57:02;;;;;;;21.50;7.05;;;14.70;99.90;;;;;;5049256;28;20106;-85
2021/08/10 05:59:29;;;;;;;16.17;6.25;;;14.70;99.90;;;;;;5085946;28;20434;-84
2021/08/10 06:01:57;;;;;;;11.40;6.60;;;14.80;99.90;;;;;;5089281;28;20036;-86
2021/08/10 06:04:23;;;;;;;13.00;7.45;;;14.80;99.90;;;;;;5070904;28;20740;-86
2021/08/10 06:06:48;;;;;;;19.15;6.43;;;14.80;99.90;;;;;;5071001;28;20093;-85
2021/08/10 06:09:14;;;;;;;12.52;5.72;;;14.80;99.90;;;;;;5071329;28;20036;-85
2021/08/10 06:11:40;;;;;;;15.32;5.65;;;14.90;99.90;;;;;;5087923;28;20043;-85
2021/08/10 06:14:06;;;;;;;16.35;6.20;;;14.90;99.90;;;;;;5089320;28;20483;-85
2021/08/10 06:16:33;;;;;;;13.05;6.10;;;14.90;99.90;;;;;;5070566;28;20032;-86
2021/08/10 06:18:59;;;;;;;14.00;5.45;;;15.00;99.90;;;;;;5071122;28;20146;-85
2021/08/10 06:21:26;;;;;;;14.15;5.82;;;15.00;99.90;;;;;;5053903;28;20044;-87
2021/08/10 06:23:52;;;;;;;13.45;6.25;;;15.00;99.90;;;;;;5088782;28;20054;-85
2021/08/10 06:26:18;;;;;;;12.50;6.07;;;14.90;99.90;;;;;;5088529;28;20394;-85
2021/08/10 06:28:44;;;;;;;13.20;6.03;;;15.00;99.90;;;;;;5087808;28;20047;-85
2021/08/10 06:31:10;;;;;;;11.45;4.80;;;15.00;99.90;;;;;;5053784;28;20040;-84
2021/08/10 06:33:37;;;;;;;11.88;6.03;;;15.00;99.90;;;;;;5070159;28;20040;-85
2021/08/10 06:36:03;;;;;;;12.70;5.63;;;15.10;99.90;;;;;;5088431;28;20376;-84
2021/08/10 06:38:29;;;;;;;10.05;5.22;;;15.00;99.90;;;;;;5087521;28;20071;-85
2021/08/10 06:40:55;;;;;;;13.80;4.72;;;15.10;99.90;;;;;;5088478;28;20074;-85
2021/08/10 06:43:21;;;;;;;9.73;5.10;;;15.10;99.90;;;;;;5053894;28;20043;-85
2021/08/10 06:45:47;;;;;;;12.93;4.70;;;15.10;99.90;;;;;;5053448;28;20101;-85
2021/08/10 06:48:13;;;;;;;9.30;4.93;;;15.10;99.90;;;;;;5070915;28;20062;-86
2021/08/10 06:50:39;;;;;;;8.27;4.75;;;15.20;99.90;;;;;;5053650;28;20044;-85
2021/08/10 06:53:04;;;;;;;15.48;5.40;;;15.20;99.90;;;;;;5070777;28;20044;-85
2021/08/10 06:55:30;;;;;;;10.23;5.15;;;15.20;99.90;;;;;;5081564;28;20037;-85
2021/08/10 06:57:56;;;;;;;9.75;4.80;;;15.30;99.90;;;;;;5070918;28;20063;-84
2021/08/10 07:00:22;;;;;;;9.80;5.57;;;15.30;99.90;;;;;;5087518;28;20495;-85
2021/08/10 07:02:48;;;;;;;10.98;5.95;;;15.50;99.90;;;;;;5068782;28;20039;-85
2021/08/10 07:05:15;;;;;;;13.07;6.68;;;15.50;99.90;;;;;;5066597;28;20044;-85
2021/08/10 07:07:40;;;;;;;9.85;5.55;;;15.50;99.90;;;;;;5087697;28;20101;-85
2021/08/10 07:10:07;;;;;;;16.60;6.40;;;15.60;99.90;;;;;;5088520;28;20047;-84
2021/08/10 07:12:32;;;;;;;9.85;6.20;;;15.60;99.90;;;;;;5072392;28;20126;-85
2021/08/10 07:14:58;;;;;;;11.73;5.75;;;15.60;99.90;;;;;;5073715;28;20115;-85
2021/08/10 07:17:24;;;;;;;10.98;6.57;;;15.50;99.90;;;;;;5073833;28;20472;-85
2021/08/10 07:19:50;;;;;;;10.98;6.60;;;15.60;99.90;;;;;;5073161;28;20586;-85
2021/08/10 07:22:15;;;;;;;11.57;6.35;;;15.60;99.90;;;;;;5066121;28;20051;-85
2021/08/10 07:24:41;;;;;;;13.50;6.20;;;15.80;99.90;;;;;;5090933;28;20119;-85
2021/08/10 07:27:07;;;;;;;8.68;5.93;;;15.90;99.90;;;;;;5091938;28;20048;-86
2021/08/10 07:29:33;;;;;;;11.60;6.03;;;16.20;99.90;;;;;;5089652;28;20047;-87
2021/08/10 07:31:59;;;;;;;13.38;5.63;;;16.30;99.90;;;;;;5088832;28;20092;-86
2021/08/10 07:34:25;;;;;;;8.27;5.00;;;16.40;99.90;;;;;;5070609;28;20468;-84
2021/08/10 07:36:51;;;;;;;8.73;5.60;;;16.60;99.90;;;;;;5066961;28;20176;-85
2021/08/10 07:39:17;;;;;;;9.18;5.13;;;16.60;99.90;;;;;;5053285;28;20035;-84
2021/08/10 07:41:42;;;;;;;14.70;5.18;;;16.80;99.90;;;;;;5088599;28;20432;-84
2021/08/10 07:44:09;;;;;;;8.05;4.30;;;16.80;99.90;;;;;;5073558;28;20044;-85
2021/08/10 07:46:34;;;;;;;5.20;3.97;;;16.80;99.90;;;;;;5056093;28;20062;-85
2021/08/10 07:49:01;;;;;;;8.10;3.90;;;16.80;99.90;;;;;;5090929;28;20048;-85
2021/08/10 07:51:27;;;;;;;5.70;3.42;;;16.80;99.90;;;;;;5091048;28;20040;-84
2021/08/10 07:53:53;;;;;;;7.07;3.25;;;16.90;99.90;;;;;;5090000;28;20048;-84
2021/08/10 07:56:19;;;;;;;5.25;3.63;;;17.10;99.90;;;;;;5072461;28;20060;-83
2021/08/10 07:58:45;;;;;;;3.25;2.75;;;17.20;99.90;;;;;;5038359;28;20130;-84
2021/08/10 08:01:11;;;;;;;5.47;1.85;;;17.40;99.90;;;;;;5054763;28;20105;-85
2021/08/10 08:03:37;;;;;;;5.72;2.35;;;17.20;99.90;;;;;;5092559;28;20032;-85
2021/08/10 08:06:04;;;;;;;4.07;2.10;;;17.20;99.90;;;;;;5094864;28;20075;-85
2021/08/10 08:08:30;;;;;;;6.03;2.22;;;17.20;99.90;;;;;;5055307;28;20491;-84
2021/08/10 08:10:57;;;;;;;7.10;1.90;;;17.10;99.90;;;;;;5089715;28;20089;-85
2021/08/10 08:13:25;;;;;;;6.10;2.35;;;17.00;99.90;;;;;;5071406;28;20036;-86
2021/08/10 08:15:51;;;;;;;4.97;2.08;;;17.00;99.90;;;;;;5069759;28;20072;-85
2021/08/10 08:18:17;;;;;;;6.95;2.20;;;17.10;99.90;;;;;;5055466;28;20048;-84
2021/08/10 08:20:46;;;;;;;3.13;1.63;;;17.20;99.90;;;;;;5070644;28;20055;-87
2021/08/10 08:23:13;;;;;;;2.88;1.55;;;17.30;99.90;;;;;;5087793;28;20051;-85
2021/08/10 08:25:38;;;;;;;3.60;2.10;;;17.40;99.90;;;;;;5087865;28;20404;-88
2021/08/10 08:28:08;;;;;;;5.13;2.30;;;17.40;99.90;;;;;;5052176;28;20040;-86
2021/08/10 08:30:35;;;;;;;9.00;2.75;;;17.50;99.90;;;;;;5063352;28;20040;-86
2021/08/10 08:33:01;;;;;;;7.25;3.22;;;17.50;99.90;;;;;;5086992;28;20044;-85
2021/08/10 08:35:27;;;;;;;4.18;2.40;;;17.70;99.90;;;;;;5088914;28;20043;-85
2021/08/10 08:37:53;;;;;;;6.00;2.30;;;17.90;99.90;;;;;;5036622;28;20032;-85
2021/08/10 08:40:20;;;;;;;5.53;1.73;;;18.00;99.90;;;;;;5063692;28;20051;-86
2021/08/10 08:42:45;;;;;;;15.35;2.10;;;18.10;99.90;;;;;;5071886;28;20114;-86
2021/08/10 08:45:11;;;;;;;3.92;1.80;;;18.20;99.90;;;;;;5071437;28;20118;-86
2021/08/10 08:47:46;;;;;;;2.42;1.65;;;18.10;99.90;;;;;;5090289;28;20040;-86
2021/08/10 08:50:13;;;;;;;2.85;1.85;;;18.00;99.90;;;;;;5073566;28;20035;-85
2021/08/10 08:52:41;;;;;;;3.13;1.50;;;17.90;99.90;;;;;;5055411;28;20759;-86
2021/08/10 08:55:08;;;;;;;1.52;1.40;;;17.90;99.90;;;;;;5089126;28;20484;-86
2021/08/10 08:57:34;;;;;;;4.90;1.60;;;17.90;99.90;;;;;;5084027;28;20055;-86
2021/08/10 09:00:00;;;;;;;6.38;1.45;;;17.90;99.90;;;;;;5088812;28;20051;-85
2021/08/10 09:02:27;;;;;;;3.28;1.40;;;17.90;99.90;;;;;;5089013;28;20433;-86
2021/08/10 09:04:53;;;;;;;1.58;1.42;;;17.90;99.90;;;;;;5087349;28;20125;-85
2021/08/10 09:07:18;;;;;;;2.38;1.50;;;17.90;99.90;;;;;;5089519;28;20107;-86
2021/08/10 09:09:46;;;;;;;2.90;1.60;;;17.90;99.90;;;;;;5070776;28;20036;-86
2021/08/10 09:12:17;;;;;;;3.83;1.83;;;18.00;99.90;;;;;;5086471;28;20415;-86
2021/08/10 09:14:51;;;;;;;4.70;2.13;;;18.00;99.90;;;;;;5068143;28;20036;-87
2021/08/10 09:17:19;;;;;;;2.40;2.03;;;18.00;99.90;;;;;;5087400;28;20554;-86
2021/08/10 09:19:58;;;;;;;6.30;1.83;;;18.00;99.90;;;;;;5087958;28;20055;-87
2021/08/10 09:22:32;;;;;;;8.43;2.13;;;18.10;99.90;;;;;;5089395;28;20032;-86
2021/08/10 09:24:58;;;;;;;4.85;2.20;;;18.20;99.90;;;;;;5061208;28;20044;-86
2021/08/10 09:27:37;;;;;;;4.18;2.05;;;18.20;99.90;;;;;;5088488;28;20399;-86
2021/08/10 09:30:16;;;;;;;5.38;2.28;;;18.20;99.90;;;;;;5087135;28;20028;-87
2021/08/10 09:32:51;;;;;;;5.43;2.30;;;18.30;99.90;;;;;;5087620;28;20036;-86
2021/08/10 09:35:18;;;;;;;4.93;2.20;;;18.40;99.90;;;;;;5087270;28;20115;-86
2021/08/10 09:38:11;;;;;;;14.85;3.08;;;18.50;99.90;;;;;;5075064;28;20084;-86
2021/08/10 09:40:45;;;;;;;4.35;3.33;;;18.60;99.90;;;;;;5068349;28;20067;-87
2021/08/10 09:43:39;;;;;;;7.00;2.60;;;18.80;99.90;;;;;;5050678;28;20797;-86
2021/08/10 09:46:16;;;;;;;7.50;3.10;;;19.00;99.90;;;;;;5064254;28;20158;-85
2021/08/10 09:49:03;;;;;;;5.82;3.00;;;19.30;99.90;;;;;;5086344;28;20118;-85
2021/08/10 09:51:30;;;;;;;3.55;2.33;;;19.50;99.90;;;;;;5068137;28;20039;-86
2021/08/10 09:54:02;;;;;;;6.07;2.47;;;19.70;99.90;;;;;;5067445;28;20044;-86
2021/08/10 09:56:51;;;;;;;9.05;2.97;;;19.70;99.90;;;;;;5095021;28;21786;-87
2021/08/10 09:59:19;;;;;;;3.63;2.47;;;19.80;99.90;;;;;;5086387;28;20036;-86
2021/08/10 10:01:48;;;;;;;4.97;2.85;;;19.80;99.90;;;;;;5069360;28;20040;-86
2021/08/10 10:04:27;;;;;;;5.78;2.38;;;19.60;99.90;;;;;;5087878;28;20055;-86
2021/08/10 10:06:57;;;;;;;;;;;19.50;99.90;;;;;;5070226;28;20044;-86
2021/08/10 10:09:27;;;;;;;5.78;2.67;;;19.40;99.90;;;;;;5088652;28;19986;-86
2021/08/10 10:11:54;;;;;;;4.30;2.60;;;19.60;99.90;;;;;;5088980;28;20185;-86
2021/08/10 10:14:22;;;;;;;6.20;2.53;;;19.80;99.90;;;;;;5052675;28;20127;-86
2021/08/10 10:16:51;;;;;;;8.85;2.58;;;19.90;99.90;;;;;;5086534;28;20040;-87
2021/08/10 10:19:18;;;;;;;6.65;2.80;;;19.90;99.90;;;;;;5086828;28;20033;-85
2021/08/10 10:21:52;;;;;;;6.43;2.83;;;19.80;99.90;;;;;;5045716;28;20720;-86
2021/08/10 10:24:20;;;;;;;11.05;2.17;;;19.50;99.90;;;;;;5081951;28;20111;-86
2021/08/10 10:27:07;;;;;;;5.28;2.63;;;19.40;99.90;;;;;;5069297;28;20040;-86
2021/08/10 10:29:34;;;;;;;6.90;2.83;;;19.30;99.90;;;;;;5086429;28;20139;-85
2021/08/10 10:32:01;;;;;;;4.43;2.38;;;19.30;99.90;;;;;;5068866;28;20109;-87
2021/08/10 10:34:27;;;;;;;6.53;2.47;;;19.40;99.90;;;;;;5069440;28;20036;-87
2021/08/10 10:36:56;;;;;;;7.15;2.63;;;19.70;99.90;;;;;;5032801;28;20491;-89
2021/08/10 10:39:33;;;;;;;4.65;2.60;;;19.90;99.90;;;;;;5082030;28;20119;-88
2021/08/10 10:42:01;;;;;;;6.78;2.22;;;20.20;99.90;;;;;;5080621;28;20040;-87
2021/08/10 10:44:40;;;;;;;4.97;2.10;;;20.50;99.90;;;;;;5070112;28;20043;-88
2021/08/10 10:47:25;;;;;;;3.92;2.00;;;20.90;99.90;;;;;;5073473;28;20040;-87
2021/08/10 10:49:56;;;;;;;6.05;2.55;;;21.20;99.90;;;;;;5091849;28;20488;-87
2021/08/10 10:52:24;;;;;;;4.05;1.90;;;21.40;99.90;;;;;;5091891;28;20036;-87
2021/08/10 10:54:52;;;;;;;4.32;2.30;;;21.30;99.90;;;;;;5091817;28;20109;-88
2021/08/10 10:57:30;;;;;;;6.68;2.47;;;21.40;99.90;;;;;;5070685;28;20049;-88
2021/08/10 10:59:56;;;;;;;3.22;2.03;;;21.50;99.90;;;;;;5073280;28;20051;-89
2021/08/10 11:02:25;;;;;;;5.90;1.88;;;21.70;99.90;;;;;;5073736;28;20065;-88
2021/08/10 11:05:07;;;;;;;4.85;2.55;;;21.90;99.90;;;;;;5072480;28;20052;-89
2021/08/10 11:07:50;;;;;;;5.40;2.33;;;21.80;99.90;;;;;;5087177;28;20047;-88
2021/08/10 11:10:48;;;;;;;8.98;2.90;;;21.60;99.90;;;;;;5099048;28;20061;-87
2021/08/10 11:13:17;;;;;;;7.93;2.30;;;21.20;99.90;;;;;;5079619;28;20063;-88
2021/08/10 11:15:45;;;;;;;5.47;2.55;;;20.60;99.90;;;;;;5092000;28;20403;-87
2021/08/10 11:18:11;;;;;;;5.03;2.58;;;19.80;99.90;;;;;;5089766;28;20086;-86
2021/08/10 11:20:42;;;;;;;19.13;3.85;;;19.50;99.90;;;;;;5068306;28;20044;-88
2021/08/10 11:23:21;;;;;;;9.25;3.20;;;18.90;99.90;;;;;;5088393;28;20062;-87
2021/08/10 11:25:47;;;;;;;15.70;2.80;;;17.20;99.90;;;;;;5063820;28;20527;-89
2021/08/10 11:28:36;;;;;;;15.75;3.25;;;15.90;99.90;;;;;;5071558;28;20522;-88
2021/08/10 11:31:08;;;;;;;11.37;3.73;;;15.60;99.90;;;;;;5087881;28;20418;-89
2021/08/10 11:33:37;;;;;;;7.43;3.17;;;15.60;99.90;;;;;;5072844;28;20042;-89
2021/08/10 11:36:12;;;;;;;6.60;2.03;;;15.40;99.90;;;;;;5070473;28;20070;-88
2021/08/10 11:38:44;;;;;;;4.85;1.80;;;15.20;99.90;;;;;;5065323;28;20040;-87
2021/08/10 11:41:19;;;;;;;2.60;1.80;;;15.20;99.90;;;;;;5067917;28;20040;-89
2021/08/10 11:43:53;;;;;;;3.75;2.10;;;15.20;99.90;;;;;;5053800;28;20059;-89
2021/08/10 11:46:24;;;;;;;2.97;1.83;;;15.10;99.90;;;;;;5089512;28;20028;-89
2021/08/10 11:48:51;;;;;;;3.65;1.70;;;15.30;99.90;;;;;;5073808;28;20044;-89
2021/08/10 11:51:18;;;;;;;2.97;2.10;;;15.40;99.90;;;;;;5098439;28;20044;-90
2021/08/10 11:53:44;;;;;;;4.70;2.08;;;15.40;99.90;;;;;;5073372;28;20055;-90
2021/08/10 11:56:30;;;;;;;7.03;2.50;;;15.40;99.90;;;;;;5055471;28;20062;-90
2021/08/10 11:58:59;;;;;;;4.32;2.70;;;15.80;99.90;;;;;;5073371;28;20062;-90
2021/08/10 12:01:29;;;;;;;9.63;3.63;;;16.00;99.90;;;;;;5073592;28;20544;-90
2021/08/10 12:04:10;;;;;;;6.22;3.83;;;16.00;99.90;;;;;;5090974;28;20044;-90
2021/08/10 12:06:36;;;;;;;10.23;4.30;;;16.60;99.90;;;;;;5073604;28;20048;-90
2021/08/10 12:09:13;;;;;;;8.70;4.18;;;16.80;99.90;;;;;;5047486;28;20550;-90
2021/08/10 12:11:44;;;;;;;6.07;3.58;;;16.70;99.90;;;;;;5090674;28;20043;-90
2021/08/10 12:14:16;;;;;;;6.30;3.50;;;16.90;99.90;;;;;;5090338;28;20048;-91
2021/08/10 12:17:05;;;;;;;12.27;3.72;;;16.90;99.90;;;;;;5073848;28;20044;-91
2021/08/10 12:19:38;;;;;;;19.58;4.40;;;17.20;99.90;;;;;;5090156;28;20047;-90
2021/08/10 12:22:07;;;;;;;8.20;3.88;;;17.70;99.90;;;;;;5090814;28;20044;-90
2021/08/10 12:24:39;;;;;;;6.73;3.00;;;18.00;99.90;;;;;;5072881;28;20044;-90
2021/08/10 12:27:06;;;;;;;9.35;4.05;;;17.90;99.90;;;;;;5056226;28;20491;-91
2021/08/10 12:29:41;;;;;;;5.18;3.20;;;18.20;99.90;;;;;;5090900;28;20174;-91
2021/08/10 12:32:10;;;;;;;7.05;3.90;;;18.20;99.90;;;;;;5072289;28;20051;-91
2021/08/10 12:34:38;;;;;;;6.13;3.10;;;18.20;99.90;;;;;;5089430;28;20043;-90
2021/08/10 12:37:06;;;;;;;7.17;3.20;;;18.20;99.90;;;;;;5072311;28;20048;-91
2021/08/10 12:39:38;;;;;;;6.60;3.28;;;18.10;99.90;;;;;;5090546;28;20471;-90
2021/08/10 12:42:05;;;;;;;5.43;2.50;;;18.00;99.90;;;;;;5073176;28;20044;-91
2021/08/10 12:44:32;;;;;;;7.70;2.63;;;17.90;99.90;;;;;;5055858;28;20095;-90
2021/08/10 12:47:00;;;;;;;10.48;2.33;;;17.60;99.90;;;;;;5072197;28;20051;-91
2021/08/10 12:49:43;;;;;;;5.22;2.70;;;17.70;99.90;;;;;;5071555;28;20044;-90